»·PEaware :: N12559 KSBA-KBUR

N12559 :: KSBA-KBUR

FLIGHT INFORMATION

Flight Status: Arrived
Operator: Privately registered:
United States
More flights under this callsign
Pilot: Joshua S. (14624)
Aircraft: CESSNA 172 SKYHAWK
(C172)
More flights by this aircraft type
Origin: KSBA Santa Barbara Mun
United States
Destination: KBUR Bob Hope-Burbank
United States
More flights between these airports :: More routes between these airports
Route: +FF
File this flight plan on PilotEdge
Remarks:
Altitude:
(Current/Filed)
3,500ft
Speed:
(Current/Filed)
0kts
Departed: 28-Sep-18 11:16 AM
Arrived: 28-Sep-18 11:57 AM
Distance/Time
Traveled:
75nm/0:41
Distance/Time
To Go:
Arrived

Flight Plot

Page will automatically refresh every two minutes.

Flight plan parsing failed; only flown route is shown


Map Options




Map Legend


Flown Route
Filed Route
Departure Airport
Arrival Airport
Navaid (VOR, NDB)
Fix

Horizontal Profiles

Position Reports

Time Latitude Longitude Heading Altitude Ground
Speed
28-Sep-18 11:09 34.422661 -119.835603 340 16ft 0kts
28-Sep-18 11:10 34.422661 -119.835603 340 16ft 0kts
28-Sep-18 11:11 34.422741 -119.835731 267 16ft 8kts
28-Sep-18 11:12 34.423240 -119.837119 273 16ft 5kts
28-Sep-18 11:13 34.425063 -119.837834 345 16ft 13kts
28-Sep-18 11:14 34.426798 -119.838393 343 16ft 0kts
28-Sep-18 11:15 34.430328 -119.839465 346 16ft 9kts
28-Sep-18 11:16 34.430642 -119.839705 296 16ft 0kts
28-Sep-18 11:17 34.430645 -119.839714 295 16ft 0kts
28-Sep-18 11:18 34.419151 -119.836734 163 269ft 88kts
28-Sep-18 11:19 34.396507 -119.824472 152 1313ft 88kts
28-Sep-18 11:20 34.384723 -119.801429 95 2283ft 90kts
28-Sep-18 11:21 34.381725 -119.771345 97 3203ft 92kts
28-Sep-18 11:22 34.377527 -119.735920 98 3445ft 120kts
28-Sep-18 11:23 34.372622 -119.695684 98 3443ft 121kts
28-Sep-18 11:24 34.367669 -119.655346 98 3443ft 121kts
28-Sep-18 11:25 34.362708 -119.615064 98 3443ft 121kts
28-Sep-18 11:26 34.357745 -119.574886 98 3443ft 121kts
28-Sep-18 11:27 34.352750 -119.534560 98 3443ft 121kts
28-Sep-18 11:28 34.347749 -119.494303 98 3443ft 121kts
28-Sep-18 11:29 34.342564 -119.452640 98 3443ft 127kts
28-Sep-18 11:30 34.337261 -119.410175 98 3443ft 127kts
28-Sep-18 11:31 34.331942 -119.367719 98 3443ft 127kts
28-Sep-18 11:32 34.326621 -119.325366 98 3443ft 127kts
28-Sep-18 11:33 34.321550 -119.285089 98 3807ft 113kts
28-Sep-18 11:34 34.316927 -119.248502 98 4402ft 108kts
28-Sep-18 11:35 34.312389 -119.212712 98 4787ft 121kts
28-Sep-18 11:36 34.306652 -119.167509 98 4176ft 137kts
28-Sep-18 11:37 34.302381 -119.130352 100 3779ft 141kts
28-Sep-18 11:38 34.296531 -119.083573 100 3288ft 139kts
28-Sep-18 11:39 34.290982 -119.039842 100 3300ft 128kts
28-Sep-18 11:40 34.285506 -118.997186 100 3301ft 128kts
28-Sep-18 11:41 34.279989 -118.954499 100 3301ft 128kts
28-Sep-18 11:42 34.274482 -118.912032 100 3301ft 128kts
28-Sep-18 11:43 34.268975 -118.869669 101 3300ft 128kts
28-Sep-18 11:44 34.263443 -118.827244 101 3300ft 128kts
28-Sep-18 11:45 34.257869 -118.784672 101 3300ft 128kts
28-Sep-18 11:46 34.251652 -118.744333 98 3507ft 108kts
28-Sep-18 11:47 34.246563 -118.705812 97 3526ft 120kts
28-Sep-18 11:48 34.241363 -118.666023 97 3525ft 120kts
28-Sep-18 11:49 34.236081 -118.625862 97 3525ft 120kts
28-Sep-18 11:50 34.230852 -118.586382 97 3520ft 108kts
28-Sep-18 11:51 34.226475 -118.554092 97 3257ft 97kts
28-Sep-18 11:52 34.221900 -118.521391 104 2757ft 100kts
28-Sep-18 11:53 34.210726 -118.490708 117 2323ft 96kts
28-Sep-18 11:54 34.200108 -118.468960 110 2387ft 73kts
28-Sep-18 11:55 34.198223 -118.444673 80 2041ft 83kts
28-Sep-18 11:56 34.198315 -118.415330 87 1574ft 89kts
28-Sep-18 11:57 34.197914 -118.385996 86 1110ft 81kts
28-Sep-18 11:58 34.197736 -118.362897 87 780ft 43kts
28-Sep-18 11:59 34.196851 -118.360137 88 780ft 0kts
28-Sep-18 12:00 34.196459 -118.358877 21 780ft 0kts
28-Sep-18 12:01 34.196459 -118.358877 21 780ft 0kts
28-Sep-18 12:02 34.196459 -118.358877 21 780ft 0kts
28-Sep-18 12:03 34.196459 -118.358877 21 780ft 0kts
28-Sep-18 12:04 34.196459 -118.358877 21 780ft 0kts
28-Sep-18 12:05 34.196459 -118.358877 21 780ft 0kts
28-Sep-18 12:06 34.196459 -118.358877 21 780ft 0kts
28-Sep-18 12:07 34.196459 -118.358877 21 780ft 0kts
28-Sep-18 12:08 34.196459 -118.358877 21 780ft 0kts

Navigation Log

Ident Type
Flight plan parsing failed, navigation log unavailable